Time;durP1;ratioP1;P1;durP2;ratioP2;P2;SDS_P1;SDS_P2;PMS_P1;PMS_P2;Temp;Humidity;BMP_temperature;BMP_pressure;BME280_temperature;BME280_humidity;BME280_pressure;Samples;Min_cycle;Max_cycle;Signal;HPM_P1;HPM_P2
2024/04/04 00:00:24;;;;;;;3.70;1.70;;;;;;;20.06;31.75;99283.51;107963;1256;72869;-68
2024/04/04 00:02:51;;;;;;;5.00;2.00;;;;;;;20.29;31.61;99289.79;107999;1256;70262;-67
2024/04/04 00:05:18;;;;;;;4.20;2.00;;;;;;;20.26;31.60;99289.90;108076;1256;72440;-69
2024/04/04 00:07:45;;;;;;;6.60;1.90;;;;;;;20.24;31.73;99290.77;107954;1254;60408;-69
2024/04/04 00:10:11;;;;;;;4.70;1.70;;;;;;;20.10;31.77;99294.91;107956;1256;60339;-68
2024/04/04 00:12:40;;;;;;;4.30;1.70;;;;;;;19.84;32.28;99301.13;107990;1258;73726;-68
2024/04/04 00:15:07;;;;;;;4.70;1.60;;;;;;;19.80;32.45;99302.03;107932;1256;70362;-68
2024/04/04 00:17:34;;;;;;;5.00;2.10;;;;;;;19.73;32.56;99305.27;107944;1256;71424;-69
2024/04/04 00:20:01;;;;;;;3.90;1.60;;;;;;;19.81;32.66;99304.57;108009;1254;60303;-68
2024/04/04 00:22:28;;;;;;;3.60;1.60;;;;;;;19.99;32.32;99299.81;108242;1255;60397;-66
2024/04/04 00:24:54;;;;;;;3.00;1.70;;;;;;;20.21;32.04;99292.84;107977;1256;74185;-69
2024/04/04 00:27:21;;;;;;;4.20;1.70;;;;;;;20.09;32.20;99303.02;108109;1256;70928;-68
2024/04/04 00:29:49;;;;;;;3.80;1.80;;;;;;;19.93;32.38;99304.65;108021;1256;72803;-69
2024/04/04 00:32:15;;;;;;;3.60;1.80;;;;;;;19.99;32.49;99304.08;108016;1254;60271;-68
2024/04/04 00:34:42;;;;;;;3.90;2.00;;;;;;;20.05;32.32;99298.00;107993;1256;60287;-69
2024/04/04 00:37:09;;;;;;;3.40;1.60;;;;;;;20.03;32.31;99293.39;108057;1253;75146;-67
2024/04/04 00:39:35;;;;;;;4.50;1.80;;;;;;;19.89;32.74;99300.69;108096;1253;69676;-69
2024/04/04 00:42:02;;;;;;;4.10;1.50;;;;;;;19.81;32.76;99302.27;108114;1257;72438;-69
2024/04/04 00:44:29;;;;;;;6.50;2.20;;;;;;;19.78;33.07;99304.20;108053;1257;60309;-69
2024/04/04 00:46:56;;;;;;;4.10;2.30;;;;;;;19.54;33.31;99303.73;108111;1253;60098;-69
2024/04/04 00:49:22;;;;;;;5.10;1.80;;;;;;;19.61;33.10;99299.57;108105;1253;60292;-69
2024/04/04 00:51:49;;;;;;;5.60;1.90;;;;;;;19.64;33.32;99297.34;107934;1253;60545;-68
2024/04/04 00:54:15;;;;;;;4.10;2.00;;;;;;;19.53;33.35;99298.87;108104;1260;59179;-70
2024/04/04 00:56:42;;;;;;;5.00;2.00;;;;;;;19.37;33.55;99299.14;107975;1253;60311;-69
2024/04/04 00:59:12;;;;;;;3.30;1.60;;;;;;;19.28;33.96;99297.48;108099;1256;60562;-68
2024/04/04 01:01:42;;;;;;;4.30;2.10;;;;;;;19.06;33.93;99294.72;108109;1253;73770;-68
2024/04/04 01:04:09;;;;;;;5.50;1.90;;;;;;;18.89;34.40;99295.83;108001;1253;69623;-68
2024/04/04 01:06:38;;;;;;;3.00;1.60;;;;;;;18.84;34.67;99289.09;107898;1254;73224;-68
2024/04/04 01:09:05;;;;;;;4.70;2.00;;;;;;;18.91;34.40;99297.41;108051;1253;60328;-70
2024/04/04 01:11:31;;;;;;;4.60;1.80;;;;;;;18.72;34.96;99294.59;108077;1253;60415;-69
2024/04/04 01:13:58;;;;;;;3.20;1.40;;;;;;;18.58;34.91;99288.24;108134;1254;74054;-68
2024/04/04 01:16:25;;;;;;;5.60;2.10;;;;;;;18.66;35.02;99297.38;108150;1257;70649;-68
2024/04/04 01:18:52;;;;;;;4.30;1.70;;;;;;;18.68;34.93;99292.59;108180;1254;72467;-69
2024/04/04 01:21:18;;;;;;;4.50;1.80;;;;;;;18.68;34.86;99291.28;108149;1254;61151;-68
2024/04/04 01:23:45;;;;;;;5.30;1.90;;;;;;;18.79;34.96;99287.92;108189;1254;61264;-69
2024/04/04 01:26:14;;;;;;;7.00;2.10;;;;;;;18.73;34.80;99294.83;108144;1253;75347;-67
2024/04/04 01:28:40;;;;;;;5.60;1.90;;;;;;;18.76;34.93;99295.46;108255;1253;70386;-67
2024/04/04 01:31:07;;;;;;;4.90;2.10;;;;;;;18.66;35.07;99299.86;108087;1257;73309;-67
2024/04/04 01:33:34;;;;;;;7.00;2.10;;;;;;;18.70;34.97;99303.65;108194;1254;61192;-69
2024/04/04 01:36:00;;;;;;;5.70;2.30;;;;;;;18.59;35.27;99305.80;108128;1254;61186;-68
2024/04/04 01:38:27;;;;;;;3.60;2.00;;;;;;;18.74;35.01;99306.13;108028;1255;73677;-67
2024/04/04 01:40:54;;;;;;;4.80;1.60;;;;;;;18.79;35.02;99307.52;108181;1257;70109;-66
2024/04/04 01:43:21;;;;;;;3.90;2.00;;;;;;;18.80;34.78;99309.23;108043;1260;72448;-69
2024/04/04 01:45:48;;;;;;;6.20;2.30;;;;;;;18.86;34.51;99314.19;108131;1255;61220;-69
2024/04/04 01:48:14;;;;;;;8.00;2.70;;;;;;;18.90;34.40;99315.46;108237;1254;61113;-68
2024/04/04 01:50:41;;;;;;;3.50;1.90;;;;;;;18.68;34.82;99325.08;108194;1253;74583;-68
2024/04/04 01:53:07;;;;;;;6.90;2.20;;;;;;;18.49;35.48;99324.18;108200;1254;70825;-69
2024/04/04 01:55:35;;;;;;;2.60;1.80;;;;;;;18.63;35.61;99321.46;108240;1255;73392;-68
2024/04/04 01:58:01;;;;;;;4.70;2.20;;;;;;;18.70;35.95;99318.39;108205;1255;61716;-69
2024/04/04 02:00:28;;;;;;;7.00;2.30;;;;;;;18.54;36.83;99321.61;108125;1254;61187;-69
2024/04/04 02:02:55;;;;;;;3.90;1.90;;;;;;;18.44;37.33;99327.45;108135;1254;73078;-69
2024/04/04 02:05:21;;;;;;;5.80;2.30;;;;;;;18.42;37.62;99337.23;108140;1254;70069;-69
2024/04/04 02:07:48;;;;;;;3.50;1.90;;;;;;;18.58;37.84;99342.30;108095;1257;73284;-66
2024/04/04 02:10:15;;;;;;;2.90;1.90;;;;;;;18.61;37.78;99342.77;108146;1253;61104;-67
2024/04/04 02:12:41;;;;;;;4.10;2.40;;;;;;;18.62;37.82;99348.15;108182;1253;61270;-68
2024/04/04 02:15:10;;;;;;;3.10;2.00;;;;;;;18.63;37.77;99346.50;108152;1253;75232;-68
2024/04/04 02:17:36;;;;;;;3.20;2.20;;;;;;;18.62;37.87;99344.98;108102;1257;70874;-68
2024/04/04 02:20:10;;;;;;;3.80;2.20;;;;;;;18.44;38.10;99347.39;108065;1256;61132;-67
2024/04/04 02:22:37;;;;;;;3.40;2.30;;;;;;;18.31;38.35;99350.75;108156;1255;61138;-68
2024/04/04 02:25:09;;;;;;;2.20;1.80;;;;;;;18.27;38.36;99355.30;108081;1254;61126;-68
2024/04/04 02:27:36;;;;;;;4.80;2.30;;;;;;;18.23;38.35;99357.42;108084;1255;73218;-66
2024/04/04 02:30:02;;;;;;;5.70;2.50;;;;;;;18.16;38.41;99365.29;108089;1256;69054;-68
2024/04/04 02:32:31;;;;;;;6.30;2.50;;;;;;;17.86;38.99;99367.85;108069;1256;72607;-67
2024/04/04 02:34:58;;;;;;;5.00;2.20;;;;;;;17.77;39.17;99369.08;108102;1254;61103;-68
2024/04/04 02:37:25;;;;;;;4.50;2.30;;;;;;;17.74;39.16;99370.86;108153;1255;59698;-68
2024/04/04 02:39:52;;;;;;;3.20;2.00;;;;;;;17.82;39.18;99373.83;108129;1255;75111;-68
2024/04/04 02:42:19;;;;;;;2.90;2.00;;;;;;;17.69;39.17;99379.95;108078;1254;70598;-68
2024/04/04 02:44:47;;;;;;;5.00;2.80;;;;;;;17.76;39.05;99381.20;108112;1257;73299;-68
2024/04/04 02:47:14;;;;;;;3.00;2.40;;;;;;;17.97;38.75;99382.58;108104;1253;61501;-68
2024/04/04 02:49:40;;;;;;;6.70;2.20;;;;;;;17.89;38.70;99385.53;108058;1257;61092;-68
2024/04/04 02:52:08;;;;;;;2.90;2.20;;;;;;;18.09;38.31;99386.77;108100;1256;75307;-68
2024/04/04 02:54:34;;;;;;;5.40;2.00;;;;;;;18.08;38.43;99399.68;108081;1256;70845;-68
2024/04/04 02:57:01;;;;;;;3.30;2.20;;;;;;;18.07;38.35;99405.44;108050;1253;73235;-66
2024/04/04 02:59:27;;;;;;;4.10;2.20;;;;;;;17.96;38.51;99408.79;108058;1256;61104;-68
2024/04/04 03:01:57;;;;;;;5.00;2.30;;;;;;;17.94;38.40;99417.30;108132;1255;61117;-69
2024/04/04 03:04:24;;;;;;;3.00;1.90;;;;;;;17.93;38.30;99424.98;108074;1254;74331;-69
2024/04/04 03:06:51;;;;;;;3.80;2.30;;;;;;;17.77;38.26;99421.95;107933;1254;70478;-67
2024/04/04 03:09:18;;;;;;;3.80;2.20;;;;;;;17.54;38.39;99426.43;108026;1255;72679;-68
2024/04/04 03:11:45;;;;;;;4.50;3.00;;;;;;;17.37;38.74;99434.63;108073;1253;61231;-69
2024/04/04 03:14:11;;;;;;;2.90;1.80;;;;;;;17.41;38.39;99442.28;108037;1254;60373;-68
2024/04/04 03:16:38;;;;;;;2.00;1.60;;;;;;;17.37;37.73;99440.09;107963;1254;61121;-68
2024/04/04 03:19:05;;;;;;;1.70;1.30;;;;;;;17.23;37.20;99460.33;108054;1257;60379;-67
2024/04/04 03:21:31;;;;;;;3.20;1.60;;;;;;;17.13;36.48;99470.48;108133;1253;61248;-68
2024/04/04 03:23:58;;;;;;;3.20;1.60;;;;;;;17.25;36.54;99470.81;108096;1254;60504;-69
2024/04/04 03:26:24;;;;;;;2.00;1.30;;;;;;;17.11;36.32;99469.79;108166;1253;61151;-69
2024/04/04 03:28:51;;;;;;;2.10;1.50;;;;;;;16.95;36.29;99475.52;108101;1254;74533;-68
2024/04/04 03:31:17;;;;;;;2.10;1.40;;;;;;;16.82;36.54;99477.03;108065;1257;61109;-68
2024/04/04 03:33:44;;;;;;;3.20;1.20;;;;;;;16.77;35.95;99475.61;108015;1256;72650;-68
2024/04/04 03:36:10;;;;;;;3.30;1.40;;;;;;;16.80;36.17;99477.70;107995;1257;60962;-67
2024/04/04 03:38:37;;;;;;;2.30;1.30;;;;;;;16.68;36.04;99482.31;108006;1254;61100;-69
2024/04/04 03:41:03;;;;;;;4.50;1.40;;;;;;;16.57;35.21;99482.88;107967;1254;61200;-67
2024/04/04 03:43:30;;;;;;;4.40;1.10;;;;;;;16.37;35.23;99486.61;108022;1259;70392;-66
2024/04/04 03:46:04;;;;;;;1.80;1.40;;;;;;;16.24;34.94;99491.07;108066;1254;73285;-67
2024/04/04 03:48:33;;;;;;;1.60;1.40;;;;;;;16.25;34.57;99491.75;108030;1254;62287;-68
2024/04/04 03:51:00;;;;;;;1.70;1.10;;;;;;;16.21;34.52;99497.55;108021;1253;59939;-67
2024/04/04 03:53:28;;;;;;;2.10;1.40;;;;;;;16.13;34.22;99499.08;108030;1258;74715;-68
2024/04/04 03:55:55;;;;;;;1.80;1.50;;;;;;;16.19;34.72;99508.11;108003;1255;70690;-69
2024/04/04 03:58:28;;;;;;;2.60;1.70;;;;;;;16.05;34.53;99513.30;108010;1254;72657;-69
2024/04/04 04:00:55;;;;;;;3.90;1.70;;;;;;;15.83;34.44;99516.95;108016;1254;60443;-68
2024/04/04 04:03:21;;;;;;;3.50;1.50;;;;;;;15.70;34.95;99520.80;108027;1254;61245;-68
2024/04/04 04:05:48;;;;;;;2.00;1.40;;;;;;;15.53;34.77;99525.34;108020;1254;75039;-67
2024/04/04 04:08:15;;;;;;;1.50;1.20;;;;;;;15.51;35.21;99525.44;107973;1254;70534;-68
2024/04/04 04:10:42;;;;;;;3.00;1.90;;;;;;;15.63;35.00;99532.93;108020;1254;72483;-68
2024/04/04 04:13:09;;;;;;;3.00;1.50;;;;;;;15.52;34.73;99533.14;108046;1254;61158;-69
2024/04/04 04:15:35;;;;;;;1.90;1.70;;;;;;;15.64;34.71;99542.94;108016;1258;60830;-70
2024/04/04 04:18:02;;;;;;;2.40;1.60;;;;;;;15.54;34.64;99537.81;108098;1259;61219;-69
2024/04/04 04:23:34;;;;;;;2.50;1.70;;;;;;;15.28;35.44;99555.62;107394;1263;72684;-69
2024/04/04 04:26:01;;;;;;;3.00;1.60;;;;;;;15.39;35.26;99557.41;107399;1267;61254;-68
2024/04/04 04:28:28;;;;;;;3.90;2.00;;;;;;;15.40;34.94;99559.46;107807;1254;61175;-69
2024/04/04 04:30:54;;;;;;;2.20;1.60;;;;;;;15.61;34.79;99560.17;107955;1254;59374;-68
2024/04/04 04:33:22;;;;;;;2.00;1.50;;;;;;;15.83;34.28;99562.25;107963;1258;70585;-68
2024/04/04 04:35:48;;;;;;;3.90;1.50;;;;;;;15.90;34.76;99562.13;108054;1257;72394;-67
2024/04/04 04:38:15;;;;;;;1.80;1.50;;;;;;;15.85;34.40;99561.63;108001;1254;61130;-65
2024/04/04 04:40:42;;;;;;;3.80;1.60;;;;;;;15.92;34.38;99567.48;108102;1254;61113;-67
2024/04/04 04:43:08;;;;;;;4.10;1.40;;;;;;;15.95;34.36;99570.86;108122;1257;72952;-66
2024/04/04 04:45:35;;;;;;;2.20;1.50;;;;;;;15.65;34.13;99577.23;108128;1254;70350;-68
2024/04/04 04:48:02;;;;;;;1.90;1.50;;;;;;;15.72;34.53;99574.98;108094;1253;72780;-67
2024/04/04 04:50:29;;;;;;;3.20;1.70;;;;;;;15.83;34.35;99575.88;108098;1254;61191;-66
2024/04/04 04:52:55;;;;;;;2.80;1.60;;;;;;;15.84;34.26;99572.84;108122;1254;61193;-68
2024/04/04 04:55:22;;;;;;;2.40;1.50;;;;;;;15.83;34.38;99581.56;108103;1253;74807;-67
2024/04/04 04:57:49;;;;;;;2.20;1.50;;;;;;;15.68;34.17;99582.67;108198;1254;69614;-68
2024/04/04 05:00:15;;;;;;;3.60;2.10;;;;;;;15.75;34.65;99582.61;108170;1253;71017;-68
2024/04/04 05:02:43;;;;;;;2.10;1.50;;;;;;;15.74;34.42;99591.36;108109;1254;61279;-68
2024/04/04 05:05:15;;;;;;;2.00;1.40;;;;;;;15.44;34.41;99591.17;108094;1254;61069;-68
2024/04/04 05:07:41;;;;;;;4.90;2.60;;;;;;;15.52;35.19;99599.71;108064;1254;73574;-69
2024/04/04 05:10:10;;;;;;;3.20;2.10;;;;;;;15.69;34.38;99601.06;108121;1253;70567;-67
2024/04/04 05:12:37;;;;;;;6.40;3.80;;;;;;;15.84;34.55;99599.71;108092;1253;72411;-67
2024/04/04 05:15:05;;;;;;;5.70;2.60;;;;;;;16.01;34.43;99603.13;108065;1254;61231;-67
2024/04/04 05:17:32;;;;;;;2.10;1.80;;;;;;;16.06;33.85;99600.02;108155;1254;61177;-67
2024/04/04 05:19:59;;;;;;;3.60;1.60;;;;;;;16.19;33.99;99606.16;108042;1254;74718;-68
2024/04/04 05:22:27;;;;;;;2.20;1.70;;;;;;;16.28;33.53;99605.80;108063;1253;69834;-68
2024/04/04 05:24:54;;;;;;;5.40;2.00;;;;;;;16.30;33.44;99608.25;108119;1254;71222;-69
2024/04/04 05:27:21;;;;;;;3.20;1.80;;;;;;;16.33;33.41;99609.69;108104;1253;61122;-68
2024/04/04 05:29:47;;;;;;;2.80;1.70;;;;;;;16.34;33.26;99614.39;108114;1254;59504;-68
2024/04/04 05:32:14;;;;;;;1.90;1.40;;;;;;;15.99;33.68;99618.35;108112;1254;61180;-69
2024/04/04 05:34:40;;;;;;;2.50;1.30;;;;;;;15.87;33.79;99620.96;108134;1254;70471;-68
2024/04/04 05:37:07;;;;;;;2.30;1.50;;;;;;;15.80;33.48;99628.09;108068;1253;71453;-68
2024/04/04 05:39:34;;;;;;;3.50;1.40;;;;;;;15.80;34.03;99630.60;108097;1254;61128;-67
2024/04/04 05:42:00;;;;;;;1.60;1.50;;;;;;;15.79;33.70;99628.23;108070;1253;61221;-69
2024/04/04 05:44:27;;;;;;;1.90;1.30;;;;;;;15.71;33.74;99634.53;108094;1257;61239;-67
2024/04/04 05:46:53;;;;;;;1.80;1.30;;;;;;;15.72;33.65;99637.53;108186;1253;70076;-68
2024/04/04 05:49:20;;;;;;;1.80;1.50;;;;;;;15.69;33.39;99640.35;108145;1253;73057;-68
2024/04/04 05:51:47;;;;;;;2.70;1.30;;;;;;;15.66;33.60;99646.36;108039;1253;61118;-69
2024/04/04 05:54:15;;;;;;;1.70;1.30;;;;;;;15.60;33.70;99648.69;108123;1254;61130;-69
2024/04/04 05:56:42;;;;;;;1.50;1.20;;;;;;;15.87;33.61;99651.39;108024;1253;74651;-68
2024/04/04 05:59:09;;;;;;;1.40;1.10;;;;;;;15.97;33.53;99661.02;108015;1253;70441;-69
2024/04/04 06:01:35;;;;;;;1.50;1.30;;;;;;;15.78;33.34;99662.10;108124;1254;71634;-69
2024/04/04 06:04:02;;;;;;;4.10;1.50;;;;;;;15.92;33.53;99661.19;108141;1253;60968;-69
2024/04/04 06:06:29;;;;;;;1.80;1.30;;;;;;;15.91;33.20;99665.13;108159;1253;61242;-71
2024/04/04 06:08:57;;;;;;;1.80;1.20;;;;;;;16.07;33.13;99669.13;108145;1254;74724;-70
2024/04/04 06:11:24;;;;;;;3.30;1.30;;;;;;;16.09;33.03;99676.14;108162;1257;69361;-68
2024/04/04 06:13:51;;;;;;;3.00;1.40;;;;;;;16.06;32.42;99674.71;108095;1253;72689;-69
2024/04/04 06:16:17;;;;;;;2.60;1.40;;;;;;;15.96;32.82;99676.66;108113;1254;61229;-67
2024/04/04 06:18:45;;;;;;;2.20;1.20;;;;;;;15.98;32.73;99679.51;108184;1253;60405;-68
2024/04/04 06:21:12;;;;;;;1.60;1.20;;;;;;;16.00;31.96;99685.42;108153;1254;75015;-69
2024/04/04 06:23:38;;;;;;;1.40;1.10;;;;;;;15.97;32.54;99687.41;108067;1253;61251;-69
2024/04/04 06:26:05;;;;;;;1.50;1.20;;;;;;;15.91;32.09;99692.59;108045;1254;73715;-68
2024/04/04 06:28:32;;;;;;;1.80;1.30;;;;;;;15.94;32.15;99698.67;108072;1256;61068;-67
2024/04/04 06:30:58;;;;;;;2.00;1.10;;;;;;;15.88;32.37;99697.52;108073;1253;60977;-68
2024/04/04 06:33:25;;;;;;;1.20;1.00;;;;;;;15.82;32.09;99707.48;108105;1253;74707;-67
2024/04/04 06:35:51;;;;;;;2.30;1.00;;;;;;;15.89;32.23;99702.62;108083;1254;70340;-68
2024/04/04 06:38:18;;;;;;;1.70;1.50;;;;;;;15.97;32.25;99710.54;108065;1253;72430;-68
2024/04/04 06:40:45;;;;;;;1.30;1.10;;;;;;;16.08;31.75;99708.55;108078;1253;61152;-69
2024/04/04 06:43:11;;;;;;;3.10;1.20;;;;;;;16.12;31.77;99717.53;108080;1253;62104;-69
2024/04/04 06:45:38;;;;;;;1.40;1.30;;;;;;;16.09;31.16;99719.17;107998;1255;74035;-70
2024/04/04 06:48:05;;;;;;;2.70;1.10;;;;;;;16.09;31.24;99721.09;108114;1253;69071;-67
2024/04/04 06:50:32;;;;;;;1.60;1.00;;;;;;;15.92;31.12;99721.52;108180;1254;72796;-70
2024/04/04 06:52:59;;;;;;;1.50;1.10;;;;;;;16.03;31.06;99726.44;108128;1253;61123;-70
2024/04/04 06:55:25;;;;;;;1.00;0.90;;;;;;;16.05;31.28;99728.29;108110;1254;61254;-69
2024/04/04 06:57:52;;;;;;;1.80;1.10;;;;;;;16.10;31.00;99727.91;108157;1253;74584;-69
2024/04/04 07:00:19;;;;;;;2.00;1.20;;;;;;;16.12;30.66;99732.38;108125;1253;71621;-69
2024/04/04 07:02:45;;;;;;;1.40;0.90;;;;;;;16.19;30.34;99733.73;108086;1254;70147;-69
2024/04/04 07:05:12;;;;;;;1.20;1.00;;;;;;;16.23;29.94;99733.64;108083;1253;61243;-69
2024/04/04 07:07:39;;;;;;;1.30;1.00;;;;;;;16.31;30.24;99738.59;108039;1254;61122;-69
2024/04/04 07:10:06;;;;;;;1.40;0.90;;;;;;;16.79;29.67;99739.21;108045;1253;74701;-68
2024/04/04 07:12:33;;;;;;;0.80;0.80;;;;;;;17.54;28.82;99737.91;108085;1253;70434;-68
2024/04/04 07:15:00;;;;;;;2.10;1.00;;;;;;;18.49;27.30;99732.60;107991;1254;71419;-69
2024/04/04 07:17:29;;;;;;;2.60;1.10;;;;;;;19.18;26.19;99733.59;108027;1253;60810;-69
2024/04/04 07:19:56;;;;;;;2.50;1.00;;;;;;;19.74;26.59;99736.08;108149;1253;59332;-70
2024/04/04 07:22:23;;;;;;;4.40;0.90;;;;;;;19.81;26.47;99741.48;108111;1253;73804;-68
2024/04/04 07:24:50;;;;;;;1.70;0.90;;;;;;;19.65;26.22;99749.38;108047;1254;70496;-69
2024/04/04 07:27:17;;;;;;;1.90;1.10;;;;;;;19.37;26.78;99756.73;108052;1254;74129;-70
2024/04/04 07:29:46;;;;;;;1.30;1.10;;;;;;;19.11;26.66;99761.90;108177;1253;61275;-69
2024/04/04 07:32:13;;;;;;;2.60;1.10;;;;;;;18.87;27.23;99769.43;108104;1253;60537;-68
2024/04/04 07:34:40;;;;;;;1.40;1.00;;;;;;;18.64;27.40;99776.33;108120;1253;74278;-69
2024/04/04 07:37:07;;;;;;;1.40;1.10;;;;;;;18.35;27.45;99782.56;108129;1257;70539;-69
2024/04/04 07:39:34;;;;;;;2.40;1.00;;;;;;;18.06;27.97;99778.71;108168;1253;72025;-70
2024/04/04 07:42:01;;;;;;;2.00;1.30;;;;;;;17.70;28.24;99778.11;108134;1253;59423;-68
2024/04/04 07:44:27;;;;;;;1.60;1.10;;;;;;;17.77;28.39;99788.77;108063;1254;60227;-69
2024/04/04 07:46:54;;;;;;;1.40;1.20;;;;;;;17.88;28.28;99791.24;108083;1253;73447;-69
2024/04/04 07:49:21;;;;;;;1.40;1.00;;;;;;;17.79;27.81;99794.65;108050;1253;69097;-69
2024/04/04 07:51:48;;;;;;;2.80;1.30;;;;;;;17.81;28.17;99798.59;108064;1253;72774;-68
2024/04/04 07:54:15;;;;;;;3.20;1.10;;;;;;;17.82;27.99;99799.80;108100;1253;61541;-69
2024/04/04 07:56:42;;;;;;;1.30;1.00;;;;;;;17.86;28.39;99797.21;108057;1253;61161;-69
2024/04/04 07:59:09;;;;;;;3.40;2.50;;;;;;;17.84;28.44;99797.01;108063;1253;73750;-68
2024/04/04 08:01:37;;;;;;;1.80;1.50;;;;;;;17.78;28.13;99799.70;108066;1253;71694;-69
2024/04/04 08:04:04;;;;;;;4.20;1.50;;;;;;;17.71;28.54;99802.30;108026;1254;70815;-69
2024/04/04 08:06:31;;;;;;;2.00;1.40;;;;;;;17.53;28.82;99809.27;107957;1254;61234;-70
2024/04/04 08:08:59;;;;;;;2.60;1.30;;;;;;;17.43;29.15;99816.73;108005;1254;61105;-70
2024/04/04 08:11:25;;;;;;;1.80;1.20;;;;;;;17.34;29.27;99810.48;107994;1254;73889;-67
2024/04/04 08:13:52;;;;;;;1.40;1.20;;;;;;;17.38;29.19;99817.48;107987;1254;70139;-68
2024/04/04 08:16:19;;;;;;;2.50;1.50;;;;;;;17.45;29.24;99819.46;108004;1254;71076;-67
2024/04/04 08:18:46;;;;;;;2.00;1.40;;;;;;;17.44;29.24;99820.59;107981;1254;60891;-69
2024/04/04 08:21:14;;;;;;;3.90;1.60;;;;;;;17.52;28.51;99820.58;108018;1254;61098;-69
2024/04/04 08:23:40;;;;;;;1.60;1.40;;;;;;;17.43;29.32;99826.19;108021;1253;73810;-71
2024/04/04 08:26:07;;;;;;;2.50;1.40;;;;;;;17.39;28.92;99833.17;107954;1254;69742;-69
2024/04/04 08:28:34;;;;;;;1.90;1.30;;;;;;;17.38;28.95;99835.23;108042;1255;72967;-68
2024/04/04 08:31:02;;;;;;;2.40;1.40;;;;;;;17.41;29.06;99837.83;108048;1254;61340;-69
2024/04/04 08:33:36;;;;;;;2.20;1.30;;;;;;;17.28;29.07;99843.90;108167;1254;61241;-69
2024/04/04 08:36:02;;;;;;;3.30;1.50;;;;;;;17.29;29.38;99849.68;108038;1254;73640;-68
2024/04/04 08:38:30;;;;;;;1.80;1.20;;;;;;;17.04;29.72;99851.17;108030;1254;72062;-69
2024/04/04 08:41:05;;;;;;;2.20;1.40;;;;;;;17.04;29.70;99855.64;108075;1254;73877;-69
2024/04/04 08:43:31;;;;;;;1.50;1.20;;;;;;;16.89;30.38;99863.20;107962;1254;61042;-69
2024/04/04 08:45:58;;;;;;;3.10;1.10;;;;;;;16.81;30.50;99861.64;108040;1254;61179;-68
2024/04/04 08:48:26;;;;;;;2.60;1.40;;;;;;;16.83;30.91;99865.71;108037;1254;76119;-68
2024/04/04 08:50:53;;;;;;;2.70;1.40;;;;;;;16.92;30.62;99867.05;107934;1254;71885;-69
2024/04/04 08:53:22;;;;;;;2.10;1.20;;;;;;;16.86;30.47;99870.15;108036;1254;71218;-70
2024/04/04 08:55:55;;;;;;;1.70;1.40;;;;;;;16.84;30.97;99875.27;107872;1254;61033;-70
2024/04/04 08:58:23;;;;;;;2.30;1.50;;;;;;;16.85;30.94;99880.16;108008;1254;59318;-68
2024/04/04 09:00:50;;;;;;;4.40;1.40;;;;;;;16.63;31.15;99878.95;107840;1254;73855;-69
2024/04/04 09:03:17;;;;;;;3.60;1.80;;;;;;;16.68;31.34;99881.94;107811;1254;69779;-67
2024/04/04 09:05:52;;;;;;;2.90;1.60;;;;;;;16.70;31.08;99881.63;107972;1254;72635;-68
2024/04/04 09:08:18;;;;;;;3.80;1.50;;;;;;;16.81;31.06;99878.64;108109;1254;61153;-69
2024/04/04 09:10:45;;;;;;;1.30;1.20;;;;;;;17.22;30.83;99882.79;108059;1254;61115;-67
2024/04/04 09:13:12;;;;;;;2.20;1.30;;;;;;;17.84;30.16;99876.70;108178;1254;74604;-70
2024/04/04 09:15:41;;;;;;;1.80;1.40;;;;;;;18.58;29.50;99879.00;108028;1254;70206;-68
2024/04/04 09:18:09;;;;;;;2.10;1.30;;;;;;;19.34;27.95;99876.47;108026;1254;71480;-68
2024/04/04 09:20:37;;;;;;;2.50;1.30;;;;;;;19.62;26.89;99872.89;108012;1254;61587;-70
2024/04/04 09:23:04;;;;;;;1.20;0.90;;;;;;;19.82;26.85;99873.27;108064;1254;60247;-70
2024/04/04 09:25:31;;;;;;;2.10;1.10;;;;;;;20.18;25.96;99875.23;107949;1254;212088;-69
2024/04/04 09:29:07;;;;;;;3.70;1.00;;;;;;;19.24;27.44;99880.87;105022;1288;601113;-69
2024/04/04 09:31:36;;;;;;;2.50;1.00;;;;;;;20.42;25.85;99878.61;107355;1263;59840;-68
2024/04/04 09:34:04;;;;;;;1.20;0.90;;;;;;;20.62;25.44;99884.10;107333;1266;62190;-67
2024/04/04 09:36:33;;;;;;;1.30;0.90;;;;;;;20.67;25.31;99876.52;107326;1263;71794;-69
2024/04/04 09:39:01;;;;;;;2.80;1.70;;;;;;;20.41;25.60;99877.91;107416;1268;70520;-70
2024/04/04 09:41:30;;;;;;;1.90;1.40;;;;;;;20.42;25.58;99883.95;107421;1263;72848;-69
2024/04/04 09:43:57;;;;;;;1.10;1.00;;;;;;;20.73;25.51;99879.61;107332;1264;59604;-69
2024/04/04 09:46:25;;;;;;;2.10;1.00;;;;;;;20.18;25.62;99888.55;107517;1266;61025;-69
2024/04/04 09:48:53;;;;;;;2.20;1.10;;;;;;;20.38;25.79;99889.06;107525;1260;75622;-69
2024/04/04 09:51:25;;;;;;;2.60;0.90;;;;;;;20.39;25.72;99888.63;107510;1261;70152;-69
2024/04/04 09:53:53;;;;;;;1.40;1.00;;;;;;;20.45;25.25;99891.16;107724;1262;72139;-68
2024/04/04 09:56:21;;;;;;;1.60;1.20;;;;;;;20.74;25.36;99895.45;107448;1260;60773;-69
2024/04/04 09:58:48;;;;;;;1.00;0.90;;;;;;;21.36;25.32;99888.45;107495;1259;62135;-68
2024/04/04 10:01:20;;;;;;;1.40;0.80;;;;;;;21.85;24.53;99894.52;107517;1260;75294;-68
2024/04/04 10:04:05;;;;;;;1.60;1.10;;;;;;;21.98;24.10;99890.71;107707;1257;69326;-67
2024/04/04 10:06:40;;;;;;;2.00;1.00;;;;;;;22.30;23.44;99890.39;107835;1256;71819;-68
2024/04/04 10:09:23;;;;;;;1.40;1.00;;;;;;;22.14;23.35;99882.84;107881;1257;61055;-68
2024/04/04 10:11:51;;;;;;;1.10;1.00;;;;;;;22.48;23.01;99885.41;107803;1257;60347;-69
2024/04/04 10:14:20;;;;;;;2.30;1.00;;;;;;;22.76;23.12;99886.06;107838;1256;74036;-69
2024/04/04 10:16:53;;;;;;;1.40;0.90;;;;;;;23.24;22.77;99880.73;107738;1257;70520;-69
2024/04/04 10:19:22;;;;;;;1.40;0.90;;;;;;;23.21;22.54;99871.30;107785;1257;72590;-67
2024/04/04 10:21:49;;;;;;;1.50;0.90;;;;;;;23.21;22.35;99878.50;107842;1257;62452;-69
2024/04/04 10:24:29;;;;;;;1.70;0.90;;;;;;;23.30;22.13;99886.27;107702;1256;62393;-69
2024/04/04 10:26:59;;;;;;;2.20;0.90;;;;;;;23.24;21.95;99879.80;107917;1257;76187;-68
2024/04/04 10:29:30;;;;;;;2.60;1.10;;;;;;;23.63;21.88;99881.34;108042;1260;69592;-69
2024/04/04 10:32:06;;;;;;;4.90;0.80;;;;;;;23.91;22.00;99875.98;108026;1259;74301;-68
2024/04/04 10:34:34;;;;;;;2.70;1.10;;;;;;;24.28;21.82;99887.48;108093;1254;60330;-69
2024/04/04 10:37:03;;;;;;;1.60;0.90;;;;;;;24.30;21.42;99890.08;107965;1254;60584;-70
2024/04/04 10:39:31;;;;;;;1.90;1.00;;;;;;;24.04;21.67;99896.23;107982;1257;73933;-68
2024/04/04 10:41:59;;;;;;;1.00;0.80;;;;;;;23.66;21.54;99894.12;107954;1254;71377;-68
2024/04/04 10:44:27;;;;;;;1.80;0.90;;;;;;;23.35;22.11;99896.88;107938;1254;75016;-72
2024/04/04 10:46:55;;;;;;;2.10;0.80;;;;;;;23.09;22.47;99889.79;107928;1256;62306;-69
2024/04/04 10:49:27;;;;;;;1.70;1.00;;;;;;;23.06;22.47;99894.73;108016;1254;60992;-70
2024/04/04 10:52:04;;;;;;;1.20;0.70;;;;;;;23.43;22.33;99884.67;107885;1254;76159;-69
2024/04/04 10:54:32;;;;;;;1.60;0.90;;;;;;;23.52;22.51;99891.30;107831;1254;70490;-69
2024/04/04 10:57:00;;;;;;;1.90;1.10;;;;;;;23.59;21.93;99890.19;108046;1254;73516;-70
2024/04/04 10:59:27;;;;;;;2.30;1.20;;;;;;;23.52;22.63;99886.16;107942;1254;61182;-69
2024/04/04 11:01:56;;;;;;;1.20;1.00;;;;;;;23.53;22.08;99884.27;107922;1254;61157;-70
2024/04/04 11:04:24;;;;;;;1.00;0.90;;;;;;;23.37;21.89;99893.70;107911;1254;74246;-69
2024/04/04 11:06:52;;;;;;;6.20;0.80;;;;;;;23.10;22.22;99885.27;107997;1254;69570;-70
2024/04/04 11:09:22;;;;;;;1.40;0.90;;;;;;;23.37;22.02;99886.16;107919;1256;74742;-70
2024/04/04 11:11:53;;;;;;;2.10;1.10;;;;;;;23.80;22.15;99885.85;107939;1257;62209;-70
2024/04/04 11:14:23;;;;;;;3.40;1.00;;;;;;;23.91;21.74;99884.91;108010;1254;60319;-70
2024/04/04 11:16:54;;;;;;;1.00;0.80;;;;;;;23.96;21.43;99884.29;108074;1254;76072;-67
2024/04/04 11:19:22;;;;;;;4.30;0.90;;;;;;;23.97;21.85;99886.85;107949;1254;68510;-69
2024/04/04 11:21:50;;;;;;;1.50;0.70;;;;;;;23.95;21.85;99891.69;107930;1254;71636;-69
2024/04/04 11:24:18;;;;;;;1.50;0.90;;;;;;;23.93;21.79;99893.14;108069;1254;60416;-69
2024/04/04 11:26:45;;;;;;;1.30;0.70;;;;;;;24.11;21.48;99888.91;107943;1254;60560;-70
2024/04/04 11:29:13;;;;;;;1.90;1.00;;;;;;;24.26;21.24;99891.52;107804;1254;75983;-69